Time;durP1;ratioP1;P1;durP2;ratioP2;P2;SDS_P1;SDS_P2;PMS_P1;PMS_P2;Temp;Humidity;BMP_temperature;BMP_pressure;BME280_temperature;BME280_humidity;BME280_pressure;Samples;Min_cycle;Max_cycle;Signal;HPM_P1;HPM_P2
2021/09/08 00:02:04;;;;;;;;;;;;;;;;;;5072888;28;19924;-90
2021/09/08 00:04:32;;;;;;;;;;;;;;;;;;5075067;28;19924;-89
2021/09/08 00:07:01;;;;;;;;;;;;;;;;;;5101066;28;19923;-90
2021/09/08 00:09:29;;;;;;;;;;;;;;;;;;5069085;28;19923;-89
2021/09/08 00:11:58;;;;;;;;;;;;;;;;;;5087311;28;19939;-90
2021/09/08 00:14:27;;;;;;;;;;;;;;;;;;5067854;28;20299;-90
2021/09/08 00:16:58;;;;;;;;;;;;;;;;;;5069017;28;19935;-90
2021/09/08 00:19:27;;;;;;;;;;;;;;;;;;5069744;28;19924;-90
2021/09/08 00:21:56;;;;;;;;;;;;;;;;;;5079793;28;20402;-89
2021/09/08 00:24:24;;;;;;;;;;;;;;;;;;5065409;28;19932;-89
2021/09/08 00:26:52;;;;;;;;;;;;;;;;;;5085753;28;19928;-90
2021/09/08 00:29:21;;;;;;;;;;;;;;;;;;5073826;28;20393;-88
2021/09/08 00:31:49;;;;;;;;;;;;;;;;;;5082891;28;19928;-89
2021/09/08 00:34:17;;;;;;;;;;;;;;;;;;5076402;28;20010;-90
2021/09/08 00:36:48;;;;;;;;;;;;;;;;;;5073510;28;23166;-89
2021/09/08 00:39:18;;;;;;;;;;;;;;;;;;5069799;28;19932;-89
2021/09/08 00:41:49;;;;;;;;;;;;;;;;;;5068530;28;20290;-90
2021/09/08 00:44:17;;;;;;;;;;;;;;;;;;5077706;28;19932;-90
2021/09/08 00:46:47;;;;;;;;;;;;;;;;;;5088900;28;19927;-89
2021/09/08 00:49:15;;;;;;;;;;;;;;;;;;5072648;28;19924;-89
2021/09/08 00:51:44;;;;;;;;;;;;;;;;;;5095050;28;19924;-88
2021/09/08 00:54:16;;;;;;;;;;;;;;;;;;5070685;28;19931;-87
2021/09/08 00:56:46;;;;;;;;;;;;;;;;;;5077659;28;19924;-89
2021/09/08 00:59:16;;;;;;;;;;;;;;;;;;5077934;28;20408;-87
2021/09/08 01:01:44;;;;;;;;;;;;;;;;;;5069587;28;19931;-89
2021/09/08 01:04:16;;;;;;;;;;;;;;;;;;5087074;28;19927;-89
2021/09/08 01:06:45;;;;;;;;;;;;;;;;;;5070929;28;19924;-89
2021/09/08 01:09:17;;;;;;;;;;;;;;;;;;5105001;27;19932;-90
2021/09/08 01:11:46;;;;;;;;;;;;;;;;;;5087669;28;20301;-90
2021/09/08 01:14:16;;;;;;;;;;;;;;;;;;5089090;28;19939;-90
2021/09/08 01:16:44;;;;;;;;;;;;;;;;;;5074502;28;20317;-88
2021/09/08 01:19:13;;;;;;;;;;;;;;;;;;5088543;28;20317;-89
2021/09/08 01:21:41;;;;;;;;;;;;;;;;;;5075663;28;19931;-89
2021/09/08 01:24:11;;;;;;;;;;;;;;;;;;5093745;28;19931;-89
2021/09/08 01:26:39;;;;;;;;;;;;;;;;;;5072825;28;19932;-89
2021/09/08 01:29:08;;;;;;;;;;;;;;;;;;5091675;28;20037;-89
2021/09/08 01:31:36;;;;;;;;;;;;;;;;;;5096886;28;20432;-90
2021/09/08 01:34:07;;;;;;;;;;;;;;;;;;5077080;28;19924;-90
2021/09/08 01:36:39;;;;;;;;;;;;;;;;;;5068332;28;20283;-88
2021/09/08 01:39:07;;;;;;;;;;;;;;;;;;5081182;28;19931;-89
2021/09/08 01:41:38;;;;;;;;;;;;;;;;;;5084841;28;20421;-87
2021/09/08 01:44:07;;;;;;;;;;;;;;;;;;5093567;28;19923;-90
2021/09/08 01:46:35;;;;;;;;;;;;;;;;;;5080826;28;19931;-90
2021/09/08 01:49:03;;;;;;;;;;;;;;;;;;5086940;28;19941;-89
2021/09/08 01:51:31;;;;;;;;;;;;;;;;;;5091722;28;19928;-89
2021/09/08 01:54:00;;;;;;;;;;;;;;;;;;5080444;28;19924;-91
2021/09/08 01:56:28;;;;;;;;;;;;;;;;;;5071145;28;19924;-90
2021/09/08 01:58:57;;;;;;;;;;;;;;;;;;5092970;28;20412;-89
2021/09/08 02:01:26;;;;;;;;;;;;;;;;;;5088740;28;19924;-89
2021/09/08 02:03:54;;;;;;;;;;;;;;;;;;5078417;28;19935;-90
2021/09/08 02:06:25;;;;;;;;;;;;;;;;;;5070685;28;19935;-89
2021/09/08 02:08:54;;;;;;;;;;;;;;;;;;5096909;28;19935;-90
2021/09/08 02:11:22;;;;;;;;;;;;;;;;;;5073469;28;19923;-90
2021/09/08 02:13:52;;;;;;;;;;;;;;;;;;5081260;28;19935;-90
2021/09/08 02:16:22;;;;;;;;;;;;;;;;;;5075476;28;19927;-90
2021/09/08 02:18:50;;;;;;;;;;;;;;;;;;5076419;28;20382;-91
2021/09/08 02:21:18;;;;;;;;;;;;;;;;;;5078866;28;20305;-91
2021/09/08 02:23:47;;;;;;;;;;;;;;;;;;5099624;28;19908;-91
2021/09/08 02:26:15;;;;;;;;;;;;;;;;;;5097143;28;20300;-90
2021/09/08 02:28:43;;;;;;;;;;;;;;;;;;5066323;28;19928;-89
2021/09/08 02:31:11;;;;;;;;;;;;;;;;;;5089003;28;19925;-91
2021/09/08 02:33:41;;;;;;;;;;;;;;;;;;5078171;28;19924;-90
2021/09/08 02:36:10;;;;;;;;;;;;;;;;;;5072025;28;19932;-90
2021/09/08 02:38:38;;;;;;;;;;;;;;;;;;5072452;28;19924;-90
2021/09/08 02:41:08;;;;;;;;;;;;;;;;;;5074366;28;19951;-90
2021/09/08 02:43:36;;;;;;;;;;;;;;;;;;5105591;27;19936;-90
2021/09/08 02:46:04;;;;;;;;;;;;;;;;;;5094732;28;19924;-90
2021/09/08 02:48:34;;;;;;;;;;;;;;;;;;5072410;28;19932;-90
2021/09/08 02:51:04;;;;;;;;;;;;;;;;;;5077485;28;19945;-90
2021/09/08 02:53:33;;;;;;;;;;;;;;;;;;5074260;28;19939;-90
2021/09/08 02:56:01;;;;;;;;;;;;;;;;;;5096905;28;19932;-90
2021/09/08 02:58:30;;;;;;;;;;;;;;;;;;5075508;28;19924;-91
2021/09/08 03:00:58;;;;;;;;;;;;;;;;;;5107885;27;19928;-89
2021/09/08 03:03:27;;;;;;;;;;;;;;;;;;5071339;28;19938;-87
2021/09/08 03:05:55;;;;;;;;;;;;;;;;;;5069924;28;19924;-89
2021/09/08 03:08:25;;;;;;;;;;;;;;;;;;5086012;28;20077;-89
2021/09/08 03:10:53;;;;;;;;;;;;;;;;;;5066595;28;20304;-90
2021/09/08 03:13:21;;;;;;;;;;;;;;;;;;5070557;28;20011;-89
2021/09/08 03:15:50;;;;;;;;;;;;;;;;;;5076781;28;20101;-87
2021/09/08 03:18:18;;;;;;;;;;;;;;;;;;5076817;28;20397;-90
2021/09/08 03:20:46;;;;;;;;;;;;;;;;;;5076379;28;19924;-90
2021/09/08 03:23:14;;;;;;;;;;;;;;;;;;5088908;28;19924;-89
2021/09/08 03:25:44;;;;;;;;;;;;;;;;;;5072862;28;20397;-88
2021/09/08 03:28:12;;;;;;;;;;;;;;;;;;5076094;28;19931;-89
2021/09/08 03:30:40;;;;;;;;;;;;;;;;;;5075097;28;20389;-88
2021/09/08 03:33:09;;;;;;;;;;;;;;;;;;5072486;28;19931;-89
2021/09/08 03:35:37;;;;;;;;;;;;;;;;;;5084676;28;19924;-90
2021/09/08 03:38:05;;;;;;;;;;;;;;;;;;5075979;28;19935;-90
2021/09/08 03:40:33;;;;;;;;;;;;;;;;;;5070490;28;19931;-91
2021/09/08 03:43:03;;;;;;;;;;;;;;;;;;5097570;28;19924;-90
2021/09/08 03:45:31;;;;;;;;;;;;;;;;;;5079401;28;19931;-91
2021/09/08 03:48:00;;;;;;;;;;;;;;;;;;5095381;28;19947;-91
2021/09/08 03:50:28;;;;;;;;;;;;;;;;;;5071190;28;20401;-90
2021/09/08 03:52:56;;;;;;;;;;;;;;;;;;5080497;28;19928;-90
2021/09/08 03:55:25;;;;;;;;;;;;;;;;;;5085813;28;19931;-91
2021/09/08 03:57:53;;;;;;;;;;;;;;;;;;5069984;28;20374;-90
2021/09/08 04:00:22;;;;;;;;;;;;;;;;;;5077587;28;19946;-89
2021/09/08 04:02:51;;;;;;;;;;;;;;;;;;5076148;28;19923;-90
2021/09/08 04:05:19;;;;;;;;;;;;;;;;;;5071012;28;19959;-90
2021/09/08 04:07:47;;;;;;;;;;;;;;;;;;5075898;28;19924;-90
2021/09/08 04:10:16;;;;;;;;;;;;;;;;;;5088782;28;20496;-88
2021/09/08 04:12:44;;;;;;;;;;;;;;;;;;5077283;28;19933;-89
2021/09/08 04:15:12;;;;;;;;;;;;;;;;;;5084475;28;19924;-87
2021/09/08 04:17:42;;;;;;;;;;;;;;;;;;5077436;28;20305;-89
2021/09/08 04:20:11;;;;;;;;;;;;;;;;;;5070187;28;20309;-89
2021/09/08 04:22:39;;;;;;;;;;;;;;;;;;5093202;28;19924;-91
2021/09/08 04:25:08;;;;;;;;;;;;;;;;;;5085604;28;19924;-90
2021/09/08 04:27:37;;;;;;;;;;;;;;;;;;5068064;28;20416;-89
2021/09/08 04:30:05;;;;;;;;;;;;;;;;;;5070674;28;19931;-90
2021/09/08 04:32:33;;;;;;;;;;;;;;;;;;5064365;28;20102;-89
2021/09/08 04:35:03;;;;;;;;;;;;;;;;;;5085965;28;19932;-89
2021/09/08 04:37:33;;;;;;;;;;;;;;;;;;5087359;28;19931;-90
2021/09/08 04:40:01;;;;;;;;;;;;;;;;;;5083079;28;20297;-88
2021/09/08 04:42:31;;;;;;;;;;;;;;;;;;5074616;28;19932;-90
2021/09/08 04:44:59;;;;;;;;;;;;;;;;;;5072838;28;19935;-91
2021/09/08 04:47:27;;;;;;;;;;;;;;;;;;5087070;28;20425;-90
2021/09/08 04:49:55;;;;;;;;;;;;;;;;;;5094233;28;19924;-90
2021/09/08 04:52:25;;;;;;;;;;;;;;;;;;5100982;28;19924;-87
2021/09/08 04:54:53;;;;;;;;;;;;;;;;;;5082474;28;19939;-89
2021/09/08 04:57:22;;;;;;;;;;;;;;;;;;5067335;28;19924;-90
2021/09/08 04:59:50;;;;;;;;;;;;;;;;;;5080019;28;19931;-91
2021/09/08 05:02:18;;;;;;;;;;;;;;;;;;5063476;28;19939;-88
2021/09/08 05:04:47;;;;;;;;;;;;;;;;;;5071351;28;19932;-89
2021/09/08 05:07:15;;;;;;;;;;;;;;;;;;5067050;28;20409;-88
2021/09/08 05:09:45;;;;;;;;;;;;;;;;;;5105213;28;19928;-89
2021/09/08 05:12:13;;;;;;;;;;;;;;;;;;5064828;28;19947;-90
2021/09/08 05:14:41;;;;;;;;;;;;;;;;;;5071269;28;19942;-90
2021/09/08 05:17:09;;;;;;;;;;;;;;;;;;5076406;28;20414;-90
2021/09/08 05:19:37;;;;;;;;;;;;;;;;;;5072554;28;19932;-90
2021/09/08 05:22:06;;;;;;;;;;;;;;;;;;5074898;28;19951;-89
2021/09/08 05:24:34;;;;;;;;;;;;;;;;;;5092360;28;19931;-89
2021/09/08 05:27:04;;;;;;;;;;;;;;;;;;5084750;28;19924;-89
2021/09/08 05:29:32;;;;;;;;;;;;;;;;;;5074063;28;19924;-91
2021/09/08 05:32:01;;;;;;;;;;;;;;;;;;5075400;28;19936;-89
2021/09/08 05:34:29;;;;;;;;;;;;;;;;;;5069151;28;19931;-89
2021/09/08 05:36:57;;;;;;;;;;;;;;;;;;5078153;28;19935;-89
2021/09/08 05:39:25;;;;;;;;;;;;;;;;;;5073219;28;19923;-89
2021/09/08 05:41:54;;;;;;;;;;;;;;;;;;5070295;28;20293;-90
2021/09/08 05:44:23;;;;;;;;;;;;;;;;;;5066264;28;19932;-91
2021/09/08 05:46:52;;;;;;;;;;;;;;;;;;5092778;28;19932;-90
2021/09/08 05:49:20;;;;;;;;;;;;;;;;;;5064386;28;20175;-91
2021/09/08 05:51:48;;;;;;;;;;;;;;;;;;5076499;28;20405;-90
2021/09/08 05:54:17;;;;;;;;;;;;;;;;;;5090061;28;20556;-91
2021/09/08 05:56:45;;;;;;;;;;;;;;;;;;5079222;28;19930;-91
2021/09/08 05:59:13;;;;;;;;;;;;;;;;;;5079948;28;19939;-91
2021/09/08 06:01:43;;;;;;;;;;;;;;;;;;5080196;28;19931;-89
2021/09/08 06:04:12;;;;;;;;;;;;;;;;;;5076501;28;19928;-89
2021/09/08 06:06:40;;;;;;;;;;;;;;;;;;5074875;28;19931;-88
2021/09/08 06:09:09;;;;;;;;;;;;;;;;;;5088741;28;20382;-87
2021/09/08 06:11:37;;;;;;;;;;;;;;;;;;5102706;28;19924;-88
2021/09/08 06:14:07;;;;;;;;;;;;;;;;;;5096489;28;19924;-87
2021/09/08 06:16:35;;;;;;;;;;;;;;;;;;5077695;28;19924;-88
2021/09/08 06:19:05;;;;;;;;;;;;;;;;;;5071124;28;19939;-88
2021/09/08 06:21:33;;;;;;;;;;;;;;;;;;5087740;28;20420;-87
2021/09/08 06:24:03;;;;;;;;;;;;;;;;;;5072698;28;19932;-87
2021/09/08 06:26:31;;;;;;;;;;;;;;;;;;5081701;28;20285;-90
2021/09/08 06:29:02;;;;;;;;;;;;;;;;;;5074565;28;19947;-91
2021/09/08 06:31:30;;;;;;;;;;;;;;;;;;5089441;28;20293;-91
2021/09/08 06:33:59;;;;;;;;;;;;;;;;;;5089482;28;19931;-91
2021/09/08 06:36:28;;;;;;;;;;;;;;;;;;5073539;28;19928;-90
2021/09/08 06:38:57;;;;;;;;;;;;;;;;;;5070993;28;20309;-91
2021/09/08 06:41:25;;;;;;;;;;;;;;;;;;5101623;28;19928;-91
2021/09/08 06:43:53;;;;;;;;;;;;;;;;;;5074762;28;19935;-90
2021/09/08 06:46:22;;;;;;;;;;;;;;;;;;5073700;28;19924;-91
2021/09/08 06:48:50;;;;;;;;;;;;;;;;;;5094478;28;19928;-90
2021/09/08 06:51:18;;;;;;;;;;;;;;;;;;5079757;28;19931;-92
2021/09/08 06:53:48;;;;;;;;;;;;;;;;;;5084537;28;19930;-91
2021/09/08 06:56:16;;;;;;;;;;;;;;;;;;5077375;28;20181;-91
2021/09/08 06:58:44;;;;;;;;;;;;;;;;;;5086015;28;19927;-91
2021/09/08 07:01:13;;;;;;;;;;;;;;;;;;5072592;28;20306;-89
2021/09/08 07:03:41;;;;;;;;;;;;;;;;;;5074142;28;19924;-90
2021/09/08 07:06:10;;;;;;;;;;;;;;;;;;5072562;28;19931;-89
2021/09/08 07:08:38;;;;;;;;;;;;;;;;;;5084103;28;19928;-92
2021/09/08 07:11:08;;;;;;;;;;;;;;;;;;5084479;28;19924;-92
2021/09/08 07:13:36;;;;;;;;;;;;;;;;;;5086140;28;19916;-89
2021/09/08 07:16:05;;;;;;;;;;;;;;;;;;5099774;28;19922;-89
2021/09/08 07:18:33;;;;;;;;;;;;;;;;;;5074434;28;19931;-88
2021/09/08 07:21:02;;;;;;;;;;;;;;;;;;5071449;28;20313;-88
2021/09/08 07:23:30;;;;;;;;;;;;;;;;;;5090703;28;19925;-89
2021/09/08 07:25:58;;;;;;;;;;;;;;;;;;5069978;28;19940;-89
2021/09/08 07:28:28;;;;;;;;;;;;;;;;;;5072076;28;19928;-91
2021/09/08 07:30:56;;;;;;;;;;;;;;;;;;5081509;28;19928;-90
2021/09/08 07:33:27;;;;;;;;;;;;;;;;;;5072631;28;19932;-89
2021/09/08 07:35:56;;;;;;;;;;;;;;;;;;5081728;28;20424;-90
2021/09/08 07:38:25;;;;;;;;;;;;;;;;;;5094225;28;21452;-90
2021/09/08 07:40:55;;;;;;;;;;;;;;;;;;5072287;28;19931;-90
2021/09/08 07:43:23;;;;;;;;;;;;;;;;;;5075028;28;19923;-89
2021/09/08 07:45:58;;;;;;;;;;;;;;;;;;5078702;28;19954;-89
2021/09/08 07:48:26;;;;;;;;;;;;;;;;;;5080570;28;19934;-90
2021/09/08 07:50:57;;;;;;;;;;;;;;;;;;5072765;28;19923;-89
2021/09/08 07:53:26;;;;;;;;;;;;;;;;;;5073184;28;19935;-89
2021/09/08 07:55:54;;;;;;;;;;;;;;;;;;5080964;28;19924;-90
2021/09/08 07:58:22;;;;;;;;;;;;;;;;;;5071730;28;19931;-89
2021/09/08 08:00:51;;;;;;;;;;;;;;;;;;5082756;28;19939;-89
2021/09/08 08:03:21;;;;;;;;;;;;;;;;;;5092924;28;19928;-90
2021/09/08 08:05:50;;;;;;;;;;;;;;;;;;5072794;28;19924;-89
2021/09/08 08:08:18;;;;;;;;;;;;;;;;;;5072084;28;19924;-89
2021/09/08 08:10:47;;;;;;;;;;;;;;;;;;5083047;28;20496;-88
2021/09/08 08:13:15;;;;;;;;;;;;;;;;;;5079627;28;20279;-88
2021/09/08 08:15:43;;;;;;;;;;;;;;;;;;5063687;28;20310;-89
2021/09/08 08:18:13;;;;;;;;;;;;;;;;;;5091789;28;19929;-90
2021/09/08 08:20:42;;;;;;;;;;;;;;;;;;5079132;28;19939;-90
2021/09/08 08:23:11;;;;;;;;;;;;;;;;;;5074425;28;19951;-89
2021/09/08 08:25:39;;;;;;;;;;;;;;;;;;5071505;28;19936;-88
2021/09/08 08:28:07;;;;;;;;;;;;;;;;;;5083927;28;19925;-88
2021/09/08 08:30:36;;;;;;;;;;;;;;;;;;5067353;28;19928;-89
2021/09/08 08:33:05;;;;;;;;;;;;;;;;;;5061662;28;20416;-88
2021/09/08 08:35:33;;;;;;;;;;;;;;;;;;5080697;28;20428;-89
2021/09/08 08:38:03;;;;;;;;;;;;;;;;;;5064920;28;19931;-89
2021/09/08 08:40:32;;;;;;;;;;;;;;;;;;5064502;28;20294;-89
2021/09/08 08:43:00;;;;;;;;;;;;;;;;;;5069515;28;19936;-89
2021/09/08 08:45:29;;;;;;;;;;;;;;;;;;5065321;28;19935;-88
2021/09/08 08:47:58;;;;;;;;;;;;;;;;;;5087119;28;19931;-89
2021/09/08 08:50:26;;;;;;;;;;;;;;;;;;5068418;28;19928;-88
2021/09/08 08:52:55;;;;;;;;;;;;;;;;;;5062512;28;19943;-87
2021/09/08 08:55:24;;;;;;;;;;;;;;;;;;5078832;28;20283;-89
2021/09/08 08:57:53;;;;;;;;;;;;;;;;;;5069694;28;20309;-88
2021/09/08 09:00:22;;;;;;;;;;;;;;;;;;5087793;28;19932;-88
2021/09/08 09:02:51;;;;;;;;;;;;;;;;;;5070318;28;19939;-89
2021/09/08 09:05:28;;;;;;;;;;;;;;;;;;5076109;28;19924;-88
2021/09/08 09:07:56;;;;;;;;;;;;;;;;;;5085171;28;19924;-89
2021/09/08 09:10:26;;;;;;;;;;;;;;;;;;5072524;28;19924;-89
2021/09/08 09:12:54;;;;;;;;;;;;;;;;;;5071733;28;19928;-88
2021/09/08 09:15:23;;;;;;;;;;;;;;;;;;5079218;28;19990;-88
2021/09/08 09:17:53;;;;;;;;;;;;;;;;;;5080007;28;19932;-89
2021/09/08 09:20:21;;;;;;;;;;;;;;;;;;5098118;28;20325;-87
2021/09/08 09:22:50;;;;;;;;;;;;;;;;;;5087467;28;19924;-89
2021/09/08 09:25:19;;;;;;;;;;;;;;;;;;5073624;28;19924;-88
2021/09/08 09:27:50;;;;;;;;;;;;;;;;;;5070810;28;19927;-88
2021/09/08 09:30:20;;;;;;;;;;;;;;;;;;5074076;28;19928;-87
2021/09/08 09:32:48;;;;;;;;;;;;;;;;;;5085936;28;19924;-86
2021/09/08 09:35:17;;;;;;;;;;;;;;;;;;5086260;28;19932;-87
2021/09/08 09:37:46;;;;;;;;;;;;;;;;;;5091987;28;20456;-87
2021/09/08 09:40:15;;;;;;;;;;;;;;;;;;5096180;28;19935;-85
2021/09/08 09:42:44;;;;;;;;;;;;;;;;;;5122164;28;19928;-87
2021/09/08 09:45:14;;;;;;;;;;;;;;;;;;5072599;28;19925;-87
2021/09/08 09:47:43;;;;;;;;;;;;;;;;;;5073635;28;20314;-87
2021/09/08 09:50:13;;;;;;;;;;;;;;;;;;5067849;28;19933;-87
2021/09/08 09:52:42;;;;;;;;;;;;;;;;;;5070714;28;20410;-87
2021/09/08 09:55:10;;;;;;;;;;;;;;;;;;5065228;28;19924;-87
2021/09/08 09:57:38;;;;;;;;;;;;;;;;;;5063450;28;19928;-87
2021/09/08 10:00:07;;;;;;;;;;;;;;;;;;5061644;28;19932;-87
2021/09/08 10:02:40;;;;;;;;;;;;;;;;;;5085643;28;19932;-86
2021/09/08 10:05:09;;;;;;;;;;;;;;;;;;5079253;28;19943;-87
2021/09/08 10:07:38;;;;;;;;;;;;;;;;;;5068385;28;19931;-86
2021/09/08 10:10:12;;;;;;;;;;;;;;;;;;5088412;28;19935;-86
2021/09/08 10:12:41;;;;;;;;;;;;;;;;;;5065715;28;19924;-86
2021/09/08 10:15:10;;;;;;;;;;;;;;;;;;5061708;28;19924;-86
2021/09/08 10:17:41;;;;;;;;;;;;;;;;;;5068371;28;20297;-85
2021/09/08 10:20:11;;;;;;;;;;;;;;;;;;5052137;28;19924;-84
2021/09/08 10:22:40;;;;;;;;;;;;;;;;;;5050790;28;19928;-84
2021/09/08 10:25:09;;;;;;;;;;;;;;;;;;5063450;28;19932;-84
2021/09/08 10:27:38;;;;;;;;;;;;;;;;;;5095742;28;19936;-83
2021/09/08 10:30:10;;;;;;;;;;;;;;;;;;5096477;28;20113;-86
2021/09/08 10:32:39;;;;;;;;;;;;;;;;;;5080179;28;19924;-85
2021/09/08 10:35:12;;;;;;;;;;;;;;;;;;5066418;27;19924;-85
2021/09/08 10:37:44;;;;;;;;;;;;;;;;;;5089382;28;19935;-84
2021/09/08 10:40:13;;;;;;;;;;;;;;;;;;5066427;28;20115;-85
2021/09/08 10:42:45;;;;;;;;;;;;;;;;;;5104452;28;19924;-85
2021/09/08 10:45:16;;;;;;;;;;;;;;;;;;5086628;28;19924;-85
2021/09/08 10:47:48;;;;;;;;;;;;;;;;;;5071307;28;19925;-85
2021/09/08 10:50:19;;;;;;;;;;;;;;;;;;5100626;28;19969;-85
2021/09/08 10:52:47;;;;;;;;;;;;;;;;;;5090446;28;19924;-88
2021/09/08 10:55:20;;;;;;;;;;;;;;;;;;5086129;28;19920;-84
2021/09/08 10:57:53;;;;;;;;;;;;;;;;;;5086604;28;19934;-84
2021/09/08 11:00:22;;;;;;;;;;;;;;;;;;5103808;28;21160;-82
2021/09/08 11:02:50;;;;;;;;;;;;;;;;;;5096695;28;19935;-85
2021/09/08 11:05:20;;;;;;;;;;;;;;;;;;5100284;28;19924;-85
2021/09/08 11:07:49;;;;;;;;;;;;;;;;;;5081764;27;19924;-85
2021/09/08 11:10:24;;;;;;;;;;;;;;;;;;5071750;28;19939;-85
2021/09/08 11:12:53;;;;;;;;;;;;;;;;;;5066370;28;19939;-84
2021/09/08 11:15:30;;;;;;;;;;;;;;;;;;5068587;28;19939;-85
2021/09/08 11:17:58;;;;;;;;;;;;;;;;;;5059470;28;19935;-84
2021/09/08 11:20:28;;;;;;;;;;;;;;;;;;5079037;28;19931;-85
2021/09/08 11:23:03;;;;;;;;;;;;;;;;;;5061579;28;19931;-85
2021/09/08 11:25:32;;;;;;;;;;;;;;;;;;5060802;28;19932;-84
2021/09/08 11:28:00;;;;;;;;;;;;;;;;;;5079300;28;20329;-84
2021/09/08 11:30:32;;;;;;;;;;;;;;;;;;5087530;28;19957;-84
2021/09/08 11:33:01;;;;;;;;;;;;;;;;;;5100177;27;19924;-84
2021/09/08 11:35:38;;;;;;;;;;;;;;;;;;5075394;28;19920;-84
2021/09/08 11:38:08;;;;;;;;;;;;;;;;;;5076290;28;19932;-84
2021/09/08 11:40:37;;;;;;;;;;;;;;;;;;5090554;28;19924;-85
2021/09/08 11:43:05;;;;;;;;;;;;;;;;;;5077552;28;19932;-85
2021/09/08 11:45:34;;;;;;;;;;;;;;;;;;5083174;28;19928;-85
2021/09/08 11:48:02;;;;;;;;;;;;;;;;;;5052869;28;20337;-84
2021/09/08 11:50:30;;;;;;;;;;;;;;;;;;5058749;28;22517;-85
2021/09/08 11:53:00;;;;;;;;;;;;;;;;;;5064841;28;22667;-85
2021/09/08 11:55:30;;;;;;;;;;;;;;;;;;5102000;27;19924;-85
2021/09/08 11:58:23;;;;;;;;;;;;;;;;;;5086713;28;19912;-85
2021/09/08 12:00:57;;;;;;;;;;;;;;;;;;5060174;28;19924;-85
2021/09/08 12:03:26;;;;;;;;;;;;;;;;;;5068048;28;19928;-85
2021/09/08 12:06:07;;;;;;;;;;;;;;;;;;5089579;28;19919;-85
2021/09/08 12:08:37;;;;;;;;;;;;;;;;;;5113155;28;19980;-83
2021/09/08 12:11:07;;;;;;;;;;;;;;;;;;5085370;28;19924;-86
2021/09/08 12:13:35;;;;;;;;;;;;;;;;;;5063248;28;19924;-85
2021/09/08 12:16:04;;;;;;;;;;;;;;;;;;5063333;28;19927;-85
2021/09/08 12:18:33;;;;;;;;;;;;;;;;;;5065066;28;19928;-85
2021/09/08 12:21:16;;;;;;;;;;;;;;;;;;5056626;28;23893;-85
2021/09/08 12:23:46;;;;;;;;;;;;;;;;;;5076575;28;19932;-85
2021/09/08 12:26:15;;;;;;;;;;;;;;;;;;5070877;28;19927;-83
2021/09/08 12:28:59;;;;;;;;;;;;;;;;;;5083793;28;19924;-84
2021/09/08 12:31:27;;;;;;;;;;;;;;;;;;5114769;28;19928;-84
2021/09/08 12:33:57;;;;;;;;;;;;;;;;;;5097181;28;19935;-85
2021/09/08 12:36:25;;;;;;;;;;;;;;;;;;5085024;28;19930;-85
2021/09/08 12:38:55;;;;;;;;;;;;;;;;;;5087019;28;19908;-84
2021/09/08 12:41:23;;;;;;;;;;;;;;;;;;5070790;28;19932;-86
2021/09/08 12:44:03;;;;;;;;;;;;;;;;;;5070434;28;20407;-85
2021/09/08 12:46:40;;;;;;;;;;;;;;;;;;5059387;28;20314;-85
2021/09/08 12:49:08;;;;;;;;;;;;;;;;;;5077672;28;19928;-85
2021/09/08 12:51:37;;;;;;;;;;;;;;;;;;5084889;28;19928;-86
2021/09/08 12:54:09;;;;;;;;;;;;;;;;;;5085402;28;19931;-85
2021/09/08 12:56:37;;;;;;;;;;;;;;;;;;5088163;28;19923;-86
2021/09/08 12:59:05;;;;;;;;;;;;;;;;;;5095897;28;19912;-87
2021/09/08 13:01:33;;;;;;;;;;;;;;;;;;5112544;28;19924;-87
2021/09/08 13:04:02;;;;;;;;;;;;;;;;;;5095875;28;19924;-84
2021/09/08 13:06:30;;;;;;;;;;;;;;;;;;5089125;28;19931;-86
2021/09/08 13:08:59;;;;;;;;;;;;;;;;;;5080698;28;20290;-86
2021/09/08 13:11:29;;;;;;;;;;;;;;;;;;5098658;28;20364;-86
2021/09/08 13:13:57;;;;;;;;;;;;;;;;;;5085621;27;19935;-86
2021/09/08 13:16:25;;;;;;;;;;;;;;;;;;5075583;28;20374;-86
2021/09/08 13:18:53;;;;;;;;;;;;;;;;;;5067398;28;20329;-85
2021/09/08 13:21:24;;;;;;;;;;;;;;;;;;5085297;28;22139;-86
2021/09/08 13:23:52;;;;;;;;;;;;;;;;;;5069715;28;20396;-85
2021/09/08 13:26:21;;;;;;;;;;;;;;;;;;5067031;28;20317;-86
2021/09/08 13:28:51;;;;;;;;;;;;;;;;;;5065134;28;19932;-86
2021/09/08 13:31:20;;;;;;;;;;;;;;;;;;5085341;28;19924;-85
2021/09/08 13:33:48;;;;;;;;;;;;;;;;;;5070334;28;19932;-86
2021/09/08 13:36:16;;;;;;;;;;;;;;;;;;5072446;28;20110;-86
2021/09/08 13:38:44;;;;;;;;;;;;;;;;;;5076414;28;19924;-87
2021/09/08 13:41:13;;;;;;;;;;;;;;;;;;5072292;28;19939;-86
2021/09/08 13:43:43;;;;;;;;;;;;;;;;;;5080032;28;19931;-86
2021/09/08 13:46:13;;;;;;;;;;;;;;;;;;5095223;28;19939;-86
2021/09/08 13:48:42;;;;;;;;;;;;;;;;;;5071635;28;19924;-87
2021/09/08 13:51:13;;;;;;;;;;;;;;;;;;5090085;28;19924;-86
2021/09/08 13:53:41;;;;;;;;;;;;;;;;;;5070481;28;19924;-86
2021/09/08 13:56:10;;;;;;;;;;;;;;;;;;5086163;28;19932;-86
2021/09/08 13:58:38;;;;;;;;;;;;;;;;;;5088292;28;20383;-86
2021/09/08 14:01:06;;;;;;;;;;;;;;;;;;5085368;28;20428;-86
2021/09/08 14:03:36;;;;;;;;;;;;;;;;;;5067397;28;19925;-86
2021/09/08 14:06:04;;;;;;;;;;;;;;;;;;5078411;28;20408;-86
2021/09/08 14:08:33;;;;;;;;;;;;;;;;;;5076380;28;19931;-86
2021/09/08 14:11:02;;;;;;;;;;;;;;;;;;5073998;28;19931;-86
2021/09/08 14:13:30;;;;;;;;;;;;;;;;;;5073821;28;19932;-86
2021/09/08 14:15:59;;;;;;;;;;;;;;;;;;5075155;28;19928;-86
2021/09/08 14:18:27;;;;;;;;;;;;;;;;;;5086149;28;19924;-87
2021/09/08 14:20:57;;;;;;;;;;;;;;;;;;5100072;28;19916;-86
2021/09/08 14:23:25;;;;;;;;;;;;;;;;;;5070845;28;20010;-87
2021/09/08 14:25:54;;;;;;;;;;;;;;;;;;5085853;28;20329;-87
2021/09/08 14:28:23;;;;;;;;;;;;;;;;;;5069789;28;19928;-87
2021/09/08 14:30:51;;;;;;;;;;;;;;;;;;5066841;28;19931;-87
2021/09/08 14:33:19;;;;;;;;;;;;;;;;;;5074296;28;21560;-86
2021/09/08 14:35:48;;;;;;;;;;;;;;;;;;5092825;28;19916;-86
2021/09/08 14:38:17;;;;;;;;;;;;;;;;;;5090734;28;20410;-87
2021/09/08 14:40:46;;;;;;;;;;;;;;;;;;5100439;27;19932;-87
2021/09/08 14:43:14;;;;;;;;;;;;;;;;;;5105590;28;19939;-86
2021/09/08 14:45:46;;;;;;;;;;;;;;;;;;5093211;28;19920;-86
2021/09/08 14:48:15;;;;;;;;;;;;;;;;;;5118232;27;19934;-86
2021/09/08 14:50:43;;;;;;;;;;;;;;;;;;5113304;28;19928;-86
2021/09/08 14:53:11;;;;;;;;;;;;;;;;;;5089598;28;19930;-85
2021/09/08 14:55:44;;;;;;;;;;;;;;;;;;5093365;28;19912;-86
2021/09/08 14:58:12;;;;;;;;;;;;;;;;;;5072180;28;19931;-87
2021/09/08 15:00:41;;;;;;;;;;;;;;;;;;5088446;28;19939;-86
2021/09/08 15:03:10;;;;;;;;;;;;;;;;;;5092175;28;19931;-86
2021/09/08 15:05:39;;;;;;;;;;;;;;;;;;5072451;28;20420;-86
2021/09/08 15:08:07;;;;;;;;;;;;;;;;;;5063162;28;19943;-86
2021/09/08 15:10:36;;;;;;;;;;;;;;;;;;5070478;28;20302;-87
2021/09/08 15:13:05;;;;;;;;;;;;;;;;;;5102076;28;19928;-86
2021/09/08 15:15:34;;;;;;;;;;;;;;;;;;5091327;28;19912;-86
2021/09/08 15:18:02;;;;;;;;;;;;;;;;;;5111585;28;19934;-86
2021/09/08 15:20:30;;;;;;;;;;;;;;;;;;5070381;28;19924;-86
2021/09/08 15:22:58;;;;;;;;;;;;;;;;;;5070618;28;19935;-86
2021/09/08 15:25:27;;;;;;;;;;;;;;;;;;5093326;28;19982;-86
2021/09/08 15:27:55;;;;;;;;;;;;;;;;;;5090900;28;19932;-86
2021/09/08 15:30:25;;;;;;;;;;;;;;;;;;5071740;28;19924;-86
2021/09/08 15:32:55;;;;;;;;;;;;;;;;;;5086430;28;19939;-87
2021/09/08 15:35:30;;;;;;;;;;;;;;;;;;5086943;28;19943;-86
2021/09/08 15:37:58;;;;;;;;;;;;;;;;;;5090621;28;19936;-86
2021/09/08 15:40:26;;;;;;;;;;;;;;;;;;5078308;28;19931;-86
2021/09/08 15:42:55;;;;;;;;;;;;;;;;;;5099376;28;19968;-86
2021/09/08 15:45:24;;;;;;;;;;;;;;;;;;5084285;28;19924;-86
2021/09/08 15:47:54;;;;;;;;;;;;;;;;;;5093633;27;19932;-86
2021/09/08 15:50:22;;;;;;;;;;;;;;;;;;5072734;28;19924;-86
2021/09/08 15:52:50;;;;;;;;;;;;;;;;;;5106740;28;19908;-86
2021/09/08 15:55:19;;;;;;;;;;;;;;;;;;5087391;28;19924;-86
2021/09/08 15:57:47;;;;;;;;;;;;;;;;;;5069098;28;20296;-86
2021/09/08 16:00:21;;;;;;;;;;;;;;;;;;5084937;28;20283;-86
2021/09/08 16:02:51;;;;;;;;;;;;;;;;;;5084955;28;19932;-86
2021/09/08 16:05:19;;;;;;;;;;;;;;;;;;5064995;28;19928;-86
2021/09/08 16:07:48;;;;;;;;;;;;;;;;;;5082234;28;19947;-86
2021/09/08 16:10:25;;;;;;;;;;;;;;;;;;5070532;28;19935;-86
2021/09/08 16:12:54;;;;;;;;;;;;;;;;;;5061387;28;19931;-86
2021/09/08 16:15:22;;;;;;;;;;;;;;;;;;5091235;28;19923;-86
2021/09/08 16:17:55;;;;;;;;;;;;;;;;;;5072239;28;19924;-86
2021/09/08 16:20:23;;;;;;;;;;;;;;;;;;5068197;28;20433;-85
2021/09/08 16:22:52;;;;;;;;;;;;;;;;;;5078440;28;20374;-85
2021/09/08 16:25:20;;;;;;;;;;;;;;;;;;5088146;28;20465;-85
2021/09/08 16:27:48;;;;;;;;;;;;;;;;;;5094401;28;19927;-85
2021/09/08 16:30:18;;;;;;;;;;;;;;;;;;5073612;28;22551;-85
2021/09/08 16:32:47;;;;;;;;;;;;;;;;;;5067469;28;19931;-85
2021/09/08 16:35:16;;;;;;;;;;;;;;;;;;5071276;28;19928;-85
2021/09/08 16:37:46;;;;;;;;;;;;;;;;;;5070950;28;20305;-86
2021/09/08 16:40:15;;;;;;;;;;;;;;;;;;5066041;28;20398;-86
2021/09/08 16:42:43;;;;;;;;;;;;;;;;;;5076172;28;20364;-86
2021/09/08 16:45:12;;;;;;;;;;;;;;;;;;5080080;28;19923;-85
2021/09/08 16:47:40;;;;;;;;;;;;;;;;;;5086456;28;19931;-86
2021/09/08 16:50:10;;;;;;;;;;;;;;;;;;5069168;28;19924;-86
2021/09/08 16:52:40;;;;;;;;;;;;;;;;;;5087455;28;19942;-86
2021/09/08 16:55:08;;;;;;;;;;;;;;;;;;5071078;28;20394;-86
2021/09/08 16:57:38;;;;;;;;;;;;;;;;;;5068796;28;19924;-86
2021/09/08 17:00:07;;;;;;;;;;;;;;;;;;5094830;28;19938;-86